createdAt,value
2018-12-18T00:01:11.437Z,115.03
2018-12-18T00:03:42.573Z,127.00
2018-12-18T00:06:13.625Z,123.63
2018-12-18T00:08:42.795Z,129.07
2018-12-18T00:11:11.881Z,121.10
2018-12-18T00:13:41.965Z,118.20
2018-12-18T00:16:11.046Z,114.90
2018-12-18T00:18:40.071Z,118.30
2018-12-18T00:21:09.128Z,128.10
2018-12-18T00:23:38.438Z,121.20
2018-12-18T00:26:07.480Z,122.40
2018-12-18T00:28:36.616Z,120.93
2018-12-18T00:31:05.657Z,120.30
2018-12-18T00:33:34.647Z,120.13
2018-12-18T00:36:03.716Z,117.80
2018-12-18T00:38:32.787Z,121.90
2018-12-18T00:41:01.976Z,115.97
2018-12-18T00:43:31.202Z,115.87
2018-12-18T00:46:00.269Z,120.37
2018-12-18T00:48:29.398Z,116.57
2018-12-18T00:50:58.462Z,119.37
2018-12-18T00:53:27.577Z,122.17
2018-12-18T00:55:56.789Z,120.83
2018-12-18T00:58:25.888Z,120.67
2018-12-18T01:00:55.016Z,121.67
2018-12-18T01:03:24.603Z,120.23
2018-12-18T01:05:53.697Z,122.73
2018-12-18T01:08:22.742Z,123.50
2018-12-18T01:10:51.748Z,118.53
2018-12-18T01:13:20.789Z,121.57
2018-12-18T01:15:50.057Z,119.87
2018-12-18T01:18:19.135Z,118.67
2018-12-18T01:20:48.147Z,116.00
2018-12-18T01:23:17.218Z,114.67
2018-12-18T01:25:47.240Z,113.97
2018-12-18T01:28:16.338Z,114.03
2018-12-18T01:30:45.435Z,111.90
2018-12-18T01:33:14.594Z,113.83
2018-12-18T01:35:43.686Z,115.53
2018-12-18T01:38:12.706Z,111.97
2018-12-18T01:40:41.743Z,113.70
2018-12-18T01:43:10.772Z,113.10
2018-12-18T01:45:39.816Z,115.10
2018-12-18T01:48:08.958Z,116.77
2018-12-18T01:50:38.049Z,115.23
2018-12-18T01:53:07.101Z,117.03
2018-12-18T01:55:36.178Z,116.20
2018-12-18T01:58:05.248Z,116.03
2018-12-18T02:00:34.328Z,115.87
2018-12-18T02:03:03.478Z,126.03
2018-12-18T02:05:32.494Z,118.50
2018-12-18T02:08:01.526Z,122.30
2018-12-18T02:10:30.612Z,127.30
2018-12-18T02:12:59.726Z,126.70
2018-12-18T02:15:28.905Z,126.70
2018-12-18T02:17:57.957Z,128.70
2018-12-18T02:20:27.046Z,124.97
2018-12-18T02:22:56.118Z,127.13
2018-12-18T02:25:25.169Z,124.77
2018-12-18T02:27:54.242Z,119.73
2018-12-18T02:30:23.310Z,118.20
2018-12-18T02:32:52.474Z,118.87
2018-12-18T02:35:21.584Z,116.37
2018-12-18T02:37:50.591Z,116.27
2018-12-18T02:40:19.735Z,116.87
2018-12-18T02:42:49.021Z,121.83
2018-12-18T02:45:18.169Z,119.30
2018-12-18T02:47:47.254Z,120.80
2018-12-18T02:50:16.282Z,117.27
2018-12-18T02:52:45.393Z,119.60
2018-12-18T02:55:15.730Z,121.90
2018-12-18T02:57:45.069Z,118.83
2018-12-18T03:00:14.137Z,122.20
2018-12-18T03:02:43.170Z,115.40
2018-12-18T03:05:12.260Z,111.40
2018-12-18T03:07:41.384Z,109.83
2018-12-18T03:10:10.453Z,109.67
2018-12-18T03:12:40.572Z,107.47
2018-12-18T03:15:09.720Z,108.80
2018-12-18T03:17:38.807Z,111.47
2018-12-18T03:20:08.634Z,106.37
2018-12-18T03:22:37.770Z,110.20
2018-12-18T03:25:07.044Z,111.03
2018-12-18T03:27:36.086Z,108.00
2018-12-18T03:30:05.620Z,109.43
2018-12-18T03:32:46.559Z,109.93
2018-12-18T03:35:15.561Z,105.63
2018-12-18T03:37:44.601Z,104.57
2018-12-18T03:40:14.348Z,106.67
2018-12-18T03:42:43.403Z,111.87
2018-12-18T03:45:12.546Z,107.00
2018-12-18T03:47:41.574Z,107.20
2018-12-18T03:50:10.849Z,103.57
2018-12-18T03:52:39.989Z,102.23
2018-12-18T03:55:09.000Z,102.80
2018-12-18T03:57:38.108Z,103.60
2018-12-18T04:00:09.406Z,103.73
2018-12-18T04:02:38.697Z,101.33
2018-12-18T04:05:07.986Z,100.73
2018-12-18T04:07:37.707Z,100.00
2018-12-18T04:10:07.059Z,102.93
2018-12-18T04:12:36.122Z,100.97
2018-12-18T04:15:05.457Z,102.03
2018-12-18T04:17:34.544Z,108.40
2018-12-18T04:20:03.959Z,113.27
2018-12-18T04:22:33.026Z,110.27
2018-12-18T04:25:02.073Z,108.10
2018-12-18T04:27:31.190Z,111.67
2018-12-18T04:30:00.243Z,103.53
2018-12-18T04:32:29.329Z,100.67
2018-12-18T04:35:00.407Z,100.40
2018-12-18T04:37:29.487Z,101.47
2018-12-18T04:39:58.561Z,97.13
2018-12-18T04:42:27.630Z,95.17
2018-12-18T04:44:56.775Z,95.67
2018-12-18T04:47:25.802Z,100.17
2018-12-18T04:49:55.932Z,102.10
2018-12-18T04:52:24.987Z,103.23
2018-12-18T04:54:54.070Z,101.43
2018-12-18T04:57:23.286Z,98.93
2018-12-18T04:59:52.349Z,98.80
2018-12-18T05:02:21.369Z,97.30
2018-12-18T05:04:50.771Z,95.23
2018-12-18T05:07:19.970Z,95.67
2018-12-18T05:09:49.013Z,96.57
2018-12-18T05:12:18.146Z,95.37
2018-12-18T05:14:47.141Z,105.70
2018-12-18T05:17:16.291Z,105.93
2018-12-18T05:19:45.365Z,110.77
2018-12-18T05:22:14.410Z,107.17
2018-12-18T05:24:43.421Z,104.47
2018-12-18T05:27:12.501Z,100.17
2018-12-18T05:29:41.588Z,99.13
2018-12-18T05:32:10.629Z,99.97
2018-12-18T05:34:39.788Z,99.53
2018-12-18T05:37:08.826Z,96.83
2018-12-18T05:39:38.204Z,96.07
2018-12-18T05:42:07.396Z,98.20
2018-12-18T05:44:36.410Z,98.93
2018-12-18T05:47:05.470Z,99.40
2018-12-18T05:49:34.553Z,99.63
2018-12-18T05:52:03.624Z,97.23
2018-12-18T05:54:32.645Z,100.00
2018-12-18T05:57:01.786Z,97.27
2018-12-18T05:59:30.847Z,96.07
2018-12-18T06:01:59.845Z,93.50
2018-12-18T06:04:28.857Z,96.20
2018-12-18T06:06:58.020Z,90.40
2018-12-18T06:09:27.094Z,88.53
2018-12-18T06:11:56.105Z,91.10
2018-12-18T06:14:25.109Z,93.27
2018-12-18T06:16:54.114Z,103.30
2018-12-18T06:19:23.161Z,104.87
2018-12-18T06:21:52.217Z,99.17
2018-12-18T06:24:21.236Z,110.07
2018-12-18T06:26:50.294Z,178.47
2018-12-18T06:29:19.334Z,127.10
2018-12-18T06:31:48.330Z,101.27
2018-12-18T06:34:17.394Z,102.80
2018-12-18T06:36:46.471Z,104.03
2018-12-18T06:39:15.541Z,103.17
2018-12-18T06:41:44.636Z,102.90
2018-12-18T06:44:13.658Z,99.33
2018-12-18T06:46:42.737Z,96.87
2018-12-18T06:49:11.805Z,93.03
2018-12-18T06:51:40.834Z,105.30
2018-12-18T06:54:09.973Z,97.87
2018-12-18T06:56:39.154Z,96.03
2018-12-18T06:59:08.382Z,86.23
2018-12-18T07:01:37.536Z,82.67
2018-12-18T07:04:06.656Z,88.77
2018-12-18T07:06:35.864Z,91.63
2018-12-18T07:09:07.862Z,88.07
2018-12-18T07:11:36.964Z,88.87
2018-12-18T07:14:05.979Z,93.63
2018-12-18T07:16:35.146Z,93.40
2018-12-18T07:19:04.219Z,95.63
2018-12-18T07:21:33.394Z,103.17
2018-12-18T07:24:02.484Z,104.30
2018-12-18T07:26:31.548Z,102.23
2018-12-18T07:29:00.550Z,99.50
2018-12-18T07:31:29.724Z,96.40
2018-12-18T07:33:58.814Z,97.50
2018-12-18T07:36:27.863Z,100.57
2018-12-18T07:38:56.957Z,102.93
2018-12-18T07:41:26.864Z,100.90
2018-12-18T07:43:56.120Z,100.93
2018-12-18T07:46:25.242Z,101.53
2018-12-18T07:48:55.277Z,97.77
2018-12-18T07:51:24.562Z,97.93
2018-12-18T07:53:53.697Z,100.47
2018-12-18T07:56:22.721Z,96.40
2018-12-18T07:58:51.754Z,104.37
2018-12-18T08:01:20.900Z,104.13
2018-12-18T08:03:49.921Z,101.33
2018-12-18T08:06:19.050Z,99.50
2018-12-18T08:08:48.085Z,97.70
2018-12-18T08:11:17.188Z,100.60
2018-12-18T08:13:46.234Z,100.23
2018-12-18T08:16:15.254Z,103.10
2018-12-18T08:18:44.430Z,101.47
2018-12-18T08:21:13.552Z,112.60
2018-12-18T08:23:42.675Z,113.60
2018-12-18T08:26:11.782Z,113.27
2018-12-18T08:28:40.810Z,110.83
2018-12-18T08:31:09.854Z,108.57
2018-12-18T08:33:38.870Z,115.53
2018-12-18T08:36:07.972Z,121.63
2018-12-18T08:38:37.090Z,115.13
2018-12-18T08:41:06.140Z,117.07
2018-12-18T08:43:35.249Z,122.07
2018-12-18T08:46:10.058Z,134.50
2018-12-18T08:48:35.867Z,112.83
2018-12-18T08:51:04.887Z,129.50
2018-12-18T08:53:35.128Z,140.30
2018-12-18T08:56:04.446Z,167.80
2018-12-18T08:58:33.542Z,133.67
2018-12-18T09:01:02.555Z,115.27
2018-12-18T09:03:31.679Z,117.67
2018-12-18T09:06:00.759Z,120.87
2018-12-18T09:08:29.790Z,293.00
2018-12-18T09:10:58.913Z,136.50
2018-12-18T09:13:28.020Z,104.23
2018-12-18T09:15:58.197Z,102.17
2018-12-18T09:18:27.396Z,103.40
2018-12-18T09:20:56.492Z,102.73
2018-12-18T09:23:25.548Z,97.90
2018-12-18T09:25:54.581Z,107.70
2018-12-18T09:28:23.721Z,95.80
2018-12-18T09:30:52.718Z,100.53
2018-12-18T09:33:23.881Z,107.37
2018-12-18T09:35:52.897Z,101.37
2018-12-18T09:38:27.393Z,99.27
2018-12-18T09:41:01.809Z,96.17
2018-12-18T09:43:36.302Z,92.80
2018-12-18T09:46:05.349Z,97.53
2018-12-18T09:48:34.368Z,90.20
2018-12-18T09:51:03.520Z,89.50
2018-12-18T09:53:32.516Z,87.90
2018-12-18T09:56:01.705Z,86.33
2018-12-18T09:58:30.978Z,93.10
2018-12-18T10:01:00.214Z,117.80
2018-12-18T10:03:33.473Z,128.40
2018-12-18T10:06:00.447Z,127.80
2018-12-18T10:08:29.516Z,94.93
2018-12-18T10:10:58.540Z,108.90
2018-12-18T10:13:27.670Z,90.07
2018-12-18T10:15:56.712Z,91.83
2018-12-18T10:18:25.924Z,82.27
2018-12-18T10:20:55.057Z,88.80
2018-12-18T10:23:24.305Z,88.50
2018-12-18T10:25:53.353Z,79.77
2018-12-18T10:28:22.461Z,75.60
2018-12-18T10:30:51.512Z,77.63
2018-12-18T10:33:20.828Z,78.10
2018-12-18T10:35:50.097Z,81.50
2018-12-18T10:38:19.236Z,84.43
2018-12-18T10:40:48.385Z,83.20
2018-12-18T10:43:17.919Z,84.47
2018-12-18T10:45:46.974Z,84.10
2018-12-18T10:48:16.102Z,81.67
2018-12-18T10:50:45.144Z,79.90
2018-12-18T10:53:14.292Z,81.37
2018-12-18T10:55:43.432Z,83.03
2018-12-18T10:58:12.519Z,78.57
2018-12-18T11:00:46.960Z,81.80
2018-12-18T11:03:16.178Z,84.37
2018-12-18T11:05:45.184Z,80.20
2018-12-18T11:08:14.222Z,81.57
2018-12-18T11:10:43.381Z,81.73
2018-12-18T11:13:17.972Z,86.33
2018-12-18T11:15:47.205Z,87.77
2018-12-18T11:18:16.681Z,94.30
2018-12-18T11:20:45.790Z,92.90
2018-12-18T11:23:14.827Z,85.90
2018-12-18T11:25:43.811Z,79.80
2018-12-18T11:28:12.905Z,100.73
2018-12-18T11:30:41.940Z,91.90
2018-12-18T11:33:10.978Z,92.53
2018-12-18T11:35:40.005Z,90.97
2018-12-18T11:38:09.098Z,87.50
2018-12-18T11:40:38.197Z,77.33
2018-12-18T11:43:07.220Z,78.90
2018-12-18T11:45:36.297Z,79.53
2018-12-18T11:48:05.362Z,83.90
2018-12-18T11:50:34.457Z,77.03
2018-12-18T11:53:03.569Z,76.43
2018-12-18T11:55:32.590Z,65.50
2018-12-18T11:58:01.708Z,62.90
2018-12-18T12:00:30.991Z,68.87
2018-12-18T12:03:00.163Z,67.17
2018-12-18T12:05:31.254Z,65.43
2018-12-18T12:08:00.306Z,69.07
2018-12-18T12:10:29.394Z,65.40
2018-12-18T12:12:59.490Z,61.70
2018-12-18T12:15:28.544Z,68.50
2018-12-18T12:17:57.851Z,68.60
2018-12-18T12:20:26.955Z,72.33
2018-12-18T12:22:56.050Z,75.40
2018-12-18T12:25:25.033Z,77.83
2018-12-18T12:27:59.553Z,79.30
2018-12-18T12:30:28.649Z,78.13
2018-12-18T12:32:57.726Z,83.33
2018-12-18T12:35:26.834Z,90.30
2018-12-18T12:37:55.961Z,85.43
2018-12-18T12:40:25.052Z,83.90
2018-12-18T12:42:54.301Z,85.33
2018-12-18T12:45:23.533Z,79.03
2018-12-18T12:47:53.371Z,82.93
2018-12-18T12:50:22.414Z,81.40
2018-12-18T12:52:51.521Z,74.87
2018-12-18T12:55:20.619Z,77.53
2018-12-18T12:57:50.060Z,78.40
2018-12-18T13:00:19.121Z,66.00
2018-12-18T13:02:48.134Z,63.80
2018-12-18T13:05:17.180Z,65.60
2018-12-18T13:07:46.198Z,65.10
2018-12-18T13:10:15.395Z,67.00
2018-12-18T13:12:44.651Z,68.30
2018-12-18T13:15:13.805Z,61.87
2018-12-18T13:17:42.873Z,63.60
2018-12-18T13:20:12.055Z,62.77
2018-12-18T13:22:41.146Z,66.03
2018-12-18T13:25:10.197Z,66.03
2018-12-18T13:27:39.219Z,66.70
2018-12-18T13:30:08.358Z,65.80
2018-12-18T13:32:37.538Z,58.30
2018-12-18T13:35:06.777Z,63.30
2018-12-18T13:37:35.801Z,69.50
2018-12-18T13:40:04.899Z,72.80
2018-12-18T13:42:33.988Z,64.30
2018-12-18T13:45:04.394Z,63.93
2018-12-18T13:47:33.482Z,62.27
2018-12-18T13:50:02.589Z,60.63
2018-12-18T13:52:31.721Z,60.87
2018-12-18T13:55:00.855Z,59.80
2018-12-18T13:57:30.063Z,57.67
2018-12-18T13:59:59.126Z,60.47
2018-12-18T14:02:28.217Z,64.17
2018-12-18T14:04:57.378Z,61.83
2018-12-18T14:07:26.386Z,56.17
2018-12-18T14:09:55.635Z,59.40
2018-12-18T14:12:24.694Z,59.43
2018-12-18T14:14:53.762Z,61.77
2018-12-18T14:17:22.792Z,58.67
2018-12-18T14:19:51.942Z,60.23
2018-12-18T14:22:21.013Z,58.10
2018-12-18T14:24:50.050Z,55.80
2018-12-18T14:27:19.155Z,57.70
2018-12-18T14:29:48.189Z,58.27
2018-12-18T14:32:17.288Z,61.17
2018-12-18T14:34:46.384Z,61.00
2018-12-18T14:37:15.437Z,62.43
2018-12-18T14:39:44.477Z,58.30
2018-12-18T14:42:13.617Z,56.53
2018-12-18T14:44:42.693Z,54.40
2018-12-18T14:47:12.015Z,57.07
2018-12-18T14:49:41.134Z,58.53
2018-12-18T14:52:10.240Z,63.50
2018-12-18T14:54:39.553Z,60.67
2018-12-18T14:57:08.681Z,59.23
2018-12-18T14:59:37.952Z,62.07
2018-12-18T15:02:07.134Z,85.37
2018-12-18T15:04:36.241Z,91.93
2018-12-18T15:07:05.304Z,62.83
2018-12-18T15:09:34.385Z,61.13
2018-12-18T15:12:03.508Z,58.23
2018-12-18T15:14:32.643Z,63.13
2018-12-18T15:17:01.718Z,74.50
2018-12-18T15:19:30.766Z,100.93
2018-12-18T15:21:59.770Z,97.83
2018-12-18T15:24:28.805Z,71.83
2018-12-18T15:26:57.847Z,78.27
2018-12-18T15:29:27.018Z,74.43
2018-12-18T15:31:56.027Z,76.87
2018-12-18T15:34:25.083Z,81.50
2018-12-18T15:36:54.280Z,82.30
2018-12-18T15:39:23.300Z,78.60
2018-12-18T15:41:52.332Z,84.27
2018-12-18T15:44:21.374Z,85.37
2018-12-18T15:46:50.356Z,84.83
2018-12-18T15:49:19.428Z,83.43
2018-12-18T15:51:48.658Z,86.80
2018-12-18T15:54:17.742Z,86.20
2018-12-18T15:56:46.838Z,91.33
2018-12-18T15:59:16.010Z,108.67
2018-12-18T16:01:45.133Z,110.97
2018-12-18T16:04:14.204Z,116.03
2018-12-18T16:06:43.541Z,119.17
2018-12-18T16:09:12.610Z,130.80
2018-12-18T16:11:41.657Z,109.77
2018-12-18T16:14:10.767Z,106.13
2018-12-18T16:16:40.007Z,102.83
2018-12-18T16:19:09.269Z,99.97
2018-12-18T16:21:38.904Z,111.33
2018-12-18T16:24:08.031Z,130.60
2018-12-18T16:26:37.078Z,99.80
2018-12-18T16:29:06.268Z,95.40
2018-12-18T16:31:35.460Z,93.17
2018-12-18T16:34:04.497Z,97.80
2018-12-18T16:36:33.647Z,105.93
2018-12-18T16:39:03.345Z,101.23
2018-12-18T16:41:34.483Z,103.33
2018-12-18T16:44:03.549Z,97.33
2018-12-18T16:46:32.678Z,98.83
2018-12-18T16:49:01.769Z,100.33
2018-12-18T16:51:30.858Z,106.00
2018-12-18T16:54:00.240Z,106.17
2018-12-18T16:56:29.425Z,108.67
2018-12-18T16:58:58.528Z,101.73
2018-12-18T17:01:27.565Z,107.43
2018-12-18T17:03:56.617Z,106.53
2018-12-18T17:06:26.258Z,103.40
2018-12-18T17:08:55.371Z,100.33
2018-12-18T17:11:24.524Z,100.33
2018-12-18T17:13:53.925Z,103.23
2018-12-18T17:16:23.094Z,114.33
2018-12-18T17:18:52.241Z,110.93
2018-12-18T17:21:21.285Z,104.63
2018-12-18T17:23:50.431Z,105.97
2018-12-18T17:26:19.567Z,109.20
2018-12-18T17:28:48.713Z,103.13
2018-12-18T17:31:17.750Z,105.53
2018-12-18T17:33:47.006Z,107.20
2018-12-18T17:36:16.135Z,102.27
2018-12-18T17:38:45.152Z,105.17
2018-12-18T17:41:14.245Z,106.83
2018-12-18T17:43:43.874Z,116.20
2018-12-18T17:46:13.217Z,121.23
2018-12-18T17:48:42.421Z,107.70
2018-12-18T17:51:11.669Z,111.33
2018-12-18T17:53:40.742Z,111.30
2018-12-18T17:56:10.955Z,105.70
2018-12-18T17:58:40.018Z,106.70
2018-12-18T18:01:09.247Z,109.80
2018-12-18T18:03:38.263Z,117.77
2018-12-18T18:06:07.377Z,117.97
2018-12-18T18:08:36.601Z,112.23
2018-12-18T18:11:05.941Z,109.50
2018-12-18T18:13:35.028Z,113.30
2018-12-18T18:16:04.216Z,111.80
2018-12-18T18:18:33.334Z,114.00
2018-12-18T18:21:02.510Z,113.90
2018-12-18T18:23:31.524Z,114.00
2018-12-18T18:26:00.853Z,109.87
2018-12-18T18:28:31.556Z,112.57
2018-12-18T18:31:00.693Z,114.70
2018-12-18T18:33:29.934Z,113.83
2018-12-18T18:35:59.011Z,114.77
2018-12-18T18:38:28.068Z,117.63
2018-12-18T18:40:57.192Z,116.97
2018-12-18T18:43:26.409Z,116.87
2018-12-18T18:45:55.733Z,123.33
2018-12-18T18:48:24.753Z,124.90
2018-12-18T18:50:53.929Z,127.97
2018-12-18T18:53:23.003Z,134.60
2018-12-18T18:55:53.162Z,126.30
2018-12-18T18:58:22.266Z,122.77
2018-12-18T19:00:51.653Z,127.07
2018-12-18T19:03:21.873Z,125.83
2018-12-18T19:05:51.147Z,120.70
2018-12-18T19:08:20.149Z,121.57
2018-12-18T19:10:49.302Z,146.27
2018-12-18T19:13:18.329Z,157.23
2018-12-18T19:15:47.382Z,139.30
2018-12-18T19:18:16.478Z,134.83
2018-12-18T19:20:45.555Z,205.63
2018-12-18T19:23:14.767Z,198.30
2018-12-18T19:25:43.944Z,186.57
2018-12-18T19:28:13.034Z,135.10
2018-12-18T19:30:42.134Z,122.63
2018-12-18T19:33:11.323Z,127.33
2018-12-18T19:35:40.509Z,130.47
2018-12-18T19:38:10.872Z,130.60
2018-12-18T19:40:40.163Z,127.03
2018-12-18T19:43:09.390Z,128.23
2018-12-18T19:45:38.605Z,127.27
2018-12-18T19:48:07.729Z,130.10
2018-12-18T19:50:36.755Z,129.87
2018-12-18T19:53:05.918Z,132.93
2018-12-18T19:55:35.062Z,136.03
2018-12-18T19:58:05.282Z,135.00
2018-12-18T20:00:34.588Z,163.87
2018-12-18T20:03:05.113Z,187.27
2018-12-18T20:05:34.264Z,193.00
2018-12-18T20:08:09.856Z,169.73
2018-12-18T20:10:34.397Z,177.47
2018-12-18T20:13:05.462Z,150.20
2018-12-18T20:15:34.512Z,132.60
2018-12-18T20:18:04.581Z,152.67
2018-12-18T20:20:33.821Z,189.87
2018-12-18T20:23:02.905Z,227.30
2018-12-18T20:25:32.058Z,175.87
2018-12-18T20:28:01.222Z,185.10
2018-12-18T20:30:30.414Z,182.73
2018-12-18T20:32:59.614Z,185.57
2018-12-18T20:35:28.717Z,181.87
2018-12-18T20:37:58.055Z,202.00
2018-12-18T20:40:27.196Z,209.37
2018-12-18T20:42:56.262Z,207.93
2018-12-18T20:45:25.350Z,205.77
2018-12-18T20:47:54.422Z,199.80
2018-12-18T20:50:23.554Z,193.93
2018-12-18T20:52:52.707Z,191.87
2018-12-18T20:55:21.749Z,188.97
2018-12-18T20:57:51.035Z,181.67
2018-12-18T21:00:20.154Z,188.57
2018-12-18T21:02:49.331Z,189.17
2018-12-18T21:05:18.516Z,192.57
2018-12-18T21:07:47.821Z,195.10
2018-12-18T21:10:19.005Z,189.90
2018-12-18T21:12:48.169Z,188.20
2018-12-18T21:15:17.299Z,216.27
2018-12-18T21:17:46.490Z,201.77
2018-12-18T21:20:15.765Z,204.23
2018-12-18T21:22:44.875Z,201.67
2018-12-18T21:25:18.876Z,204.33
2018-12-18T21:27:45.349Z,207.77
2018-12-18T21:30:14.589Z,211.70
2018-12-18T21:32:43.711Z,208.77
2018-12-18T21:35:12.941Z,200.43
2018-12-18T21:37:42.139Z,210.37
2018-12-18T21:40:11.225Z,204.07
2018-12-18T21:42:40.426Z,194.00
2018-12-18T21:45:09.453Z,184.40
2018-12-18T21:47:38.496Z,178.13
2018-12-18T21:50:07.874Z,176.97
2018-12-18T21:52:37.045Z,181.33
2018-12-18T21:55:06.102Z,166.13
2018-12-18T21:57:35.267Z,174.03
2018-12-18T22:00:05.477Z,176.23
2018-12-18T22:02:36.593Z,174.10
2018-12-18T22:05:05.778Z,177.43
2018-12-18T22:07:34.979Z,176.43
2018-12-18T22:10:05.186Z,177.03
2018-12-18T22:12:34.490Z,174.80
2018-12-18T22:15:03.769Z,174.53
2018-12-18T22:17:32.814Z,174.37
2018-12-18T22:20:01.952Z,162.70
2018-12-18T22:22:31.123Z,159.27
2018-12-18T22:25:00.197Z,155.20
2018-12-18T22:27:29.335Z,151.47
2018-12-18T22:29:59.392Z,149.00
2018-12-18T22:32:28.514Z,147.37
2018-12-18T22:34:57.653Z,160.20
2018-12-18T22:37:26.766Z,174.73
2018-12-18T22:39:55.814Z,178.27
2018-12-18T22:42:24.869Z,178.10
2018-12-18T22:44:53.968Z,163.30
2018-12-18T22:47:23.065Z,178.70
2018-12-18T22:49:52.121Z,172.53
2018-12-18T22:52:21.277Z,165.07
2018-12-18T22:54:50.345Z,167.43
2018-12-18T22:57:19.485Z,171.10
2018-12-18T22:59:48.657Z,167.60
2018-12-18T23:02:17.806Z,165.10
2018-12-18T23:04:47.079Z,154.13
2018-12-18T23:07:16.343Z,158.73
2018-12-18T23:09:45.498Z,157.30
2018-12-18T23:12:14.698Z,154.43
2018-12-18T23:14:44.877Z,153.10
2018-12-18T23:17:13.911Z,138.33
2018-12-18T23:19:43.005Z,140.07
2018-12-18T23:22:12.050Z,133.80
2018-12-18T23:24:41.134Z,131.77
2018-12-18T23:27:12.146Z,128.73
2018-12-18T23:29:41.257Z,129.03
2018-12-18T23:32:10.400Z,124.47
2018-12-18T23:34:39.459Z,118.03
2018-12-18T23:37:08.547Z,114.03
2018-12-18T23:39:37.790Z,111.63
2018-12-18T23:42:06.850Z,110.90
2018-12-18T23:44:35.973Z,121.23
2018-12-18T23:47:05.036Z,139.43
2018-12-18T23:49:34.193Z,137.87
2018-12-18T23:52:03.326Z,123.37
2018-12-18T23:54:32.446Z,114.53
2018-12-18T23:57:01.684Z,120.03
2018-12-18T23:59:30.846Z,110.20
